Time;durP1;ratioP1;P1;durP2;ratioP2;P2;SDS_P1;SDS_P2;PMS_P1;PMS_P2;Temp;Humidity;BMP_temperature;BMP_pressure;BME280_temperature;BME280_humidity;BME280_pressure;Samples;Min_cycle;Max_cycle;Signal;HPM_P1;HPM_P2
2022/03/19 00:00:24;;;;;;;20.70;19.00;;;;;;;1.12;95.94;104909.91;4992291;28;20541;-44
2022/03/19 00:02:52;;;;;;;21.23;19.70;;;;;;;1.07;95.83;104909.16;4992357;28;20441;-44
2022/03/19 00:05:20;;;;;;;21.67;19.67;;;;;;;1.02;96.03;104903.13;4992313;28;20520;-44
2022/03/19 00:07:49;;;;;;;22.13;20.23;;;;;;;0.95;95.77;104901.53;4991945;28;20556;-44
2022/03/19 00:10:20;;;;;;;22.03;20.27;;;;;;;0.93;96.26;104898.06;4992074;28;20462;-44
2022/03/19 00:12:48;;;;;;;24.63;22.00;;;;;;;0.91;96.15;104910.38;4992320;28;20511;-44
2022/03/19 00:15:17;;;;;;;21.80;20.03;;;;;;;0.89;96.32;104907.81;4992244;28;20434;-44
2022/03/19 00:17:44;;;;;;;22.00;20.03;;;;;;;0.92;96.43;104896.34;4991525;28;20987;-44
2022/03/19 00:20:13;;;;;;;20.87;19.37;;;;;;;0.95;96.80;104907.66;4992116;28;20483;-44
2022/03/19 00:22:40;;;;;;;20.10;18.80;;;;;;;0.96;96.52;104909.38;4992168;28;20875;-44
2022/03/19 00:25:11;;;;;;;22.73;20.67;;;;;;;1.01;97.22;104911.94;4992372;28;20444;-44
2022/03/19 00:27:41;;;;;;;20.80;19.33;;;;;;;1.03;97.14;104900.47;4991659;28;20545;-46
2022/03/19 00:30:10;;;;;;;21.97;20.10;;;;;;;1.10;97.69;104896.81;4992057;28;21041;-44
2022/03/19 00:32:38;;;;;;;22.07;20.43;;;;;;;1.21;97.92;104901.81;4991864;28;20495;-43
2022/03/19 00:35:07;;;;;;;22.20;20.60;;;;;;;1.23;97.29;104902.66;4992105;28;20426;-44
2022/03/19 00:37:42;;;;;;;22.23;20.47;;;;;;;1.23;97.24;104905.28;4991489;28;20473;-45
2022/03/19 00:40:12;;;;;;;21.57;19.97;;;;;;;1.23;96.85;104902.66;4991976;28;20472;-44
2022/03/19 00:42:41;;;;;;;23.77;21.60;;;;;;;1.26;97.52;104896.44;4991666;28;20478;-44
2022/03/19 00:45:10;;;;;;;23.70;21.73;;;;;;;1.21;97.24;104904.44;4984761;28;20814;-44
2022/03/19 00:47:37;;;;;;;27.67;23.10;;;;;;;1.21;97.59;104896.56;4983033;28;20560;-44
2022/03/19 00:50:06;;;;;;;23.83;21.73;;;;;;;1.20;97.10;104901.84;4991754;28;20454;-44
2022/03/19 00:52:35;;;;;;;24.20;21.97;;;;;;;1.23;97.59;104905.28;4991522;28;20449;-44
2022/03/19 00:55:03;;;;;;;22.87;21.40;;;;;;;1.22;98.04;104911.47;4991653;28;20437;-44
2022/03/19 00:57:38;;;;;;;23.57;21.33;;;;;;;1.19;97.77;104914.16;4991227;28;20549;-44
2022/03/19 01:00:11;;;;;;;22.13;20.30;;;;;;;1.18;97.47;104912.41;4991409;28;21035;-44
2022/03/19 01:02:40;;;;;;;20.93;19.60;;;;;;;1.21;97.89;104895.69;4991581;28;20470;-46
2022/03/19 01:05:09;;;;;;;20.77;19.33;;;;;;;1.24;98.26;104893.88;4991737;28;20798;-44
2022/03/19 01:07:42;;;;;;;22.30;20.60;;;;;;;1.27;97.92;104896.44;4990761;28;20488;-44
2022/03/19 01:10:11;;;;;;;21.77;19.70;;;;;;;1.23;98.11;104915.78;4991358;28;20466;-45
2022/03/19 01:12:39;;;;;;;23.27;21.13;;;;;;;1.29;97.97;104899.00;4991323;28;20949;-45
2022/03/19 01:15:09;;;;;;;24.30;21.53;;;;;;;1.38;99.03;104907.56;4991565;28;20436;-45
2022/03/19 01:17:37;;;;;;;22.10;20.27;;;;;;;1.47;99.15;104911.72;4990739;28;20472;-44
2022/03/19 01:20:06;;;;;;;22.43;20.53;;;;;;;1.54;98.95;104918.59;4991123;28;20457;-44
2022/03/19 01:22:34;;;;;;;21.10;19.60;;;;;;;1.58;98.78;104918.47;4991105;28;20984;-46
2022/03/19 01:25:04;;;;;;;21.07;19.73;;;;;;;1.67;99.18;104906.88;4991388;28;20442;-47
2022/03/19 01:27:33;;;;;;;22.37;20.40;;;;;;;1.75;99.08;104902.28;4990711;28;20473;-46
2022/03/19 01:30:01;;;;;;;20.20;18.43;;;;;;;1.79;99.33;104908.34;4991011;28;20453;-48
2022/03/19 01:32:30;;;;;;;22.67;21.13;;;;;;;1.82;99.13;104905.63;4990998;28;20430;-46
2022/03/19 01:34:57;;;;;;;20.83;19.33;;;;;;;1.86;99.13;104923.06;4991054;28;20446;-46
2022/03/19 01:37:25;;;;;;;22.63;20.00;;;;;;;1.88;98.93;104922.09;4990800;28;20474;-44
2022/03/19 01:39:55;;;;;;;19.87;18.37;;;;;;;1.88;98.46;104918.63;4991264;28;20478;-43
2022/03/19 01:42:24;;;;;;;20.30;19.10;;;;;;;1.87;98.39;104920.41;4990832;28;20477;-44
2022/03/19 01:44:52;;;;;;;19.73;18.67;;;;;;;1.90;98.73;104917.69;4983677;28;20481;-46
2022/03/19 01:47:21;;;;;;;20.90;18.80;;;;;;;1.94;98.82;104915.84;4982086;28;20473;-44
2022/03/19 01:49:50;;;;;;;20.37;18.80;;;;;;;1.96;98.61;104914.03;4990860;28;20803;-45
2022/03/19 01:52:19;;;;;;;20.80;19.07;;;;;;;2.01;98.82;104909.50;4990839;28;20434;-44
2022/03/19 01:54:49;;;;;;;22.47;20.97;;;;;;;2.04;98.50;104919.94;4990893;28;20437;-43
2022/03/19 01:57:21;;;;;;;20.23;18.73;;;;;;;2.05;98.07;104913.78;4990532;28;20466;-44
2022/03/19 01:59:49;;;;;;;23.27;19.77;;;;;;;2.07;98.15;104925.13;4990504;28;20460;-46
2022/03/19 02:02:17;;;;;;;20.57;18.83;;;;;;;2.05;97.56;104921.69;4990487;28;20484;-44
2022/03/19 02:04:45;;;;;;;20.67;19.17;;;;;;;2.05;97.53;104919.06;4990863;28;20513;-44
2022/03/19 02:07:14;;;;;;;20.97;19.03;;;;;;;2.05;97.56;104911.16;4990245;28;20810;-44
2022/03/19 02:09:42;;;;;;;21.83;20.23;;;;;;;2.06;97.00;104913.75;4990323;28;20494;-44
2022/03/19 02:12:10;;;;;;;19.10;18.10;;;;;;;2.05;97.15;104925.19;4990376;28;20449;-46
2022/03/19 02:14:40;;;;;;;20.20;18.50;;;;;;;2.04;97.08;104919.94;4990537;28;20474;-45
2022/03/19 02:17:10;;;;;;;21.87;19.60;;;;;;;2.01;96.72;104914.75;4989934;28;20466;-44
2022/03/19 02:19:49;;;;;;;20.90;19.03;;;;;;;1.96;96.62;104922.78;4989734;28;20466;-44
2022/03/19 02:22:18;;;;;;;18.43;17.50;;;;;;;1.94;97.01;104919.31;4990043;28;20499;-44
2022/03/19 02:27:33;;;;;;;18.50;17.47;;;;;;;1.90;97.10;104916.81;4989825;28;20549;-44
2022/03/19 02:30:01;;;;;;;19.50;18.43;;;;;;;1.88;96.74;104922.09;4990163;28;20450;-44
2022/03/19 02:32:29;;;;;;;19.40;18.20;;;;;;;1.86;96.62;104925.69;4990076;28;20800;-43
2022/03/19 02:34:56;;;;;;;19.30;18.00;;;;;;;1.82;97.01;104916.16;4990047;28;20434;-46
2022/03/19 02:37:24;;;;;;;20.50;18.83;;;;;;;1.81;97.30;104920.56;4973025;28;20462;-44
2022/03/19 02:39:53;;;;;;;21.83;19.53;;;;;;;1.80;96.76;104920.56;4982060;28;20454;-45
2022/03/19 02:42:21;;;;;;;19.63;17.90;;;;;;;1.75;97.03;104915.44;4989674;28;21002;-44
2022/03/19 02:44:50;;;;;;;19.30;18.00;;;;;;;1.75;96.57;104917.19;4983210;28;20930;-44
2022/03/19 02:47:17;;;;;;;21.20;19.67;;;;;;;1.70;96.31;104914.69;4970209;28;20481;-43
2022/03/19 02:49:45;;;;;;;18.90;17.57;;;;;;;1.68;96.85;104905.94;4970372;28;20490;-44
2022/03/19 02:52:12;;;;;;;19.10;17.53;;;;;;;1.66;96.39;104918.28;4970125;28;20956;-44
2022/03/19 02:54:40;;;;;;;20.03;18.60;;;;;;;1.64;96.49;104907.78;4970678;28;20435;-44
2022/03/19 02:57:09;;;;;;;19.00;17.67;;;;;;;1.63;96.97;104916.59;4970103;28;20481;-44
2022/03/19 02:59:37;;;;;;;20.63;19.20;;;;;;;1.62;96.47;104911.38;4970246;28;20948;-45
2022/03/19 03:02:07;;;;;;;20.23;18.63;;;;;;;1.64;96.72;104909.59;4970007;28;20446;-44
2022/03/19 03:04:36;;;;;;;21.10;18.30;;;;;;;1.64;96.94;104906.94;4970322;28;20542;-44
2022/03/19 03:07:05;;;;;;;19.23;17.83;;;;;;;1.67;97.59;104901.63;4969949;28;20554;-44
2022/03/19 03:09:33;;;;;;;19.33;17.60;;;;;;;1.70;97.65;104905.94;4971551;28;20933;-44
2022/03/19 03:12:02;;;;;;;22.87;18.87;;;;;;;1.67;97.59;104907.72;4989419;28;20430;-44
2022/03/19 03:14:31;;;;;;;19.57;18.40;;;;;;;1.67;97.54;104910.34;4989547;28;20483;-44
2022/03/19 03:17:00;;;;;;;21.27;19.27;;;;;;;1.68;97.42;104905.94;4989242;28;20515;-47
2022/03/19 03:19:32;;;;;;;21.83;19.97;;;;;;;1.70;97.56;104913.81;4989636;28;20473;-45
2022/03/19 03:22:00;;;;;;;18.07;17.27;;;;;;;1.70;97.53;104900.66;4989305;28;20928;-43
2022/03/19 03:24:29;;;;;;;20.17;18.63;;;;;;;1.67;97.24;104907.72;4989381;28;20438;-43
2022/03/19 03:26:56;;;;;;;20.53;18.80;;;;;;;1.65;97.77;104917.41;4989109;28;20462;-47
2022/03/19 03:29:24;;;;;;;20.97;19.03;;;;;;;1.61;97.96;104913.13;4989169;28;20436;-45
2022/03/19 03:31:53;;;;;;;20.30;18.90;;;;;;;1.60;97.55;104924.56;4989874;28;20437;-45
2022/03/19 03:34:21;;;;;;;22.07;20.17;;;;;;;1.57;97.79;104919.38;4993016;28;20864;-44
2022/03/19 03:36:48;;;;;;;20.73;18.63;;;;;;;1.56;98.03;104912.38;4992507;28;20469;-44
2022/03/19 03:39:16;;;;;;;20.20;18.70;;;;;;;1.57;97.91;104910.63;4992821;28;20438;-45
2022/03/19 03:41:43;;;;;;;20.87;19.37;;;;;;;1.56;98.35;104915.00;4992388;28;20468;-46
2022/03/19 03:44:11;;;;;;;20.87;19.17;;;;;;;1.54;98.24;104929.97;4992561;28;20477;-44
2022/03/19 03:46:38;;;;;;;21.70;20.30;;;;;;;1.53;98.38;104917.72;4992279;28;20560;-48
2022/03/19 03:49:08;;;;;;;22.57;20.50;;;;;;;1.53;98.64;104915.09;4992743;28;20440;-47
2022/03/19 03:51:35;;;;;;;20.30;18.80;;;;;;;1.50;98.35;104912.53;4992376;28;20457;-49
2022/03/19 03:54:05;;;;;;;20.47;19.03;;;;;;;1.43;97.70;104916.22;4992674;28;20433;-45
2022/03/19 03:56:32;;;;;;;21.97;20.10;;;;;;;1.39;97.84;104909.28;4991999;28;20475;-44
2022/03/19 03:59:00;;;;;;;19.63;18.37;;;;;;;1.32;98.00;104910.31;4992701;28;20433;-45
2022/03/19 04:01:27;;;;;;;20.87;18.33;;;;;;;1.29;98.04;104917.41;4992220;28;20462;-44
2022/03/19 04:03:56;;;;;;;26.87;20.00;;;;;;;1.25;97.57;104913.16;4992332;28;20477;-46
2022/03/19 04:06:24;;;;;;;52.30;21.57;;;;;;;1.19;97.34;104921.16;4992071;28;20472;-45
2022/03/19 04:08:52;;;;;;;21.07;19.27;;;;;;;1.13;98.08;104906.41;4992112;28;20429;-47
2022/03/19 04:11:20;;;;;;;21.77;19.50;;;;;;;1.09;97.61;104907.34;4991971;28;21063;-47
2022/03/19 04:13:47;;;;;;;19.43;18.07;;;;;;;1.02;97.14;104908.38;4992135;28;20444;-47
2022/03/19 04:16:15;;;;;;;21.87;20.43;;;;;;;0.97;97.17;104905.00;4991770;28;20991;-46
2022/03/19 04:18:44;;;;;;;19.47;18.20;;;;;;;0.91;97.33;104907.75;4992471;28;20477;-46
2022/03/19 04:21:11;;;;;;;19.87;18.50;;;;;;;0.83;97.34;104902.69;4992029;28;20468;-44
2022/03/19 04:23:40;;;;;;;21.27;19.07;;;;;;;0.80;97.28;104917.63;4992028;28;20481;-43
2022/03/19 04:26:08;;;;;;;19.87;18.63;;;;;;;0.83;98.05;104907.94;4991591;28;21010;-43
2022/03/19 04:28:35;;;;;;;20.13;18.50;;;;;;;0.83;98.32;104909.69;4992131;28;20806;-44
2022/03/19 04:31:03;;;;;;;20.90;19.43;;;;;;;0.85;98.09;104905.25;4991796;28;20450;-46
2022/03/19 04:33:31;;;;;;;22.60;20.50;;;;;;;0.87;98.72;104900.81;4992104;28;20608;-43
2022/03/19 04:38:45;;;;;;;19.50;18.33;;;;;;;0.90;98.82;104900.75;4991931;28;20438;-44
2022/03/19 04:41:14;;;;;;;19.73;18.07;;;;;;;0.92;98.95;104891.09;4991746;28;20462;-44
2022/03/19 04:43:41;;;;;;;21.97;20.17;;;;;;;0.93;99.50;104891.06;4991312;28;20480;-45
2022/03/19 04:46:09;;;;;;;21.13;19.43;;;;;;;0.96;99.68;104892.75;4981752;28;20453;-45
2022/03/19 04:48:37;;;;;;;21.40;19.50;;;;;;;0.97;99.67;104891.84;4986404;28;20438;-44
2022/03/19 04:51:05;;;;;;;20.10;18.93;;;;;;;0.97;99.70;104883.97;4991643;28;20458;-44
2022/03/19 04:53:33;;;;;;;22.27;20.53;;;;;;;0.96;99.43;104883.09;4991984;28;20872;-44
2022/03/19 04:56:02;;;;;;;21.43;19.73;;;;;;;0.98;99.28;104880.44;4991136;28;20448;-44
2022/03/19 04:58:30;;;;;;;20.57;19.03;;;;;;;0.99;99.52;104882.16;4991612;28;20438;-43
2022/03/19 05:00:57;;;;;;;20.67;18.80;;;;;;;0.98;99.61;104877.81;4991414;28;20450;-45
2022/03/19 05:03:25;;;;;;;23.13;20.27;;;;;;;0.99;99.49;104885.66;4991604;28;20473;-44
2022/03/19 05:05:53;;;;;;;21.67;20.07;;;;;;;0.98;99.73;104883.06;4991242;28;20465;-45
2022/03/19 05:08:21;;;;;;;21.47;19.70;;;;;;;0.97;99.98;104881.34;4991666;28;20437;-44
2022/03/19 05:13:35;;;;;;;21.87;20.13;;;;;;;0.98;100.00;104883.06;4952473;28;20960;-47
2022/03/19 05:16:02;;;;;;;21.47;19.97;;;;;;;0.98;99.43;104878.69;4950220;28;20443;-49
2022/03/19 05:18:30;;;;;;;20.13;18.60;;;;;;;0.93;99.71;104882.28;4933510;28;21011;-48
2022/03/19 05:20:58;;;;;;;22.20;20.83;;;;;;;0.86;99.97;104884.22;4933475;28;20563;-44
2022/03/19 05:23:25;;;;;;;21.97;20.60;;;;;;;0.82;99.53;104892.19;4933294;29;20475;-46
2022/03/19 05:25:53;;;;;;;22.63;20.80;;;;;;;0.79;99.79;104902.75;4933057;28;20520;-44
2022/03/19 05:28:21;;;;;;;21.23;19.63;;;;;;;0.74;100.00;104894.97;4933785;29;20437;-46
2022/03/19 05:30:54;;;;;;;20.83;19.50;;;;;;;0.71;99.80;104899.44;4933239;29;20540;-44
2022/03/19 05:34:29;;;;;;;21.03;19.80;;;;;;;0.70;100.00;104902.94;4933242;29;20494;-45
2022/03/19 05:36:11;;;;;;;22.60;20.73;;;;;;;0.73;99.97;104902.88;4936155;28;20475;-45
2022/03/19 05:38:39;;;;;;;22.90;20.97;;;;;;;0.75;100.00;104906.34;4952288;29;20442;-45
2022/03/19 05:41:07;;;;;;;24.60;22.23;;;;;;;0.80;99.23;104910.63;4952150;29;20550;-46
2022/03/19 05:43:35;;;;;;;22.37;20.47;;;;;;;0.85;99.71;104911.38;4952066;29;20471;-45
2022/03/19 05:46:04;;;;;;;23.37;21.77;;;;;;;0.91;99.41;104900.75;4952722;28;21143;-45
2022/03/19 05:48:32;;;;;;;23.70;22.40;;;;;;;0.99;99.87;104905.81;4965519;28;20508;-44
2022/03/19 05:51:01;;;;;;;24.30;22.63;;;;;;;1.22;98.98;104908.81;4969941;28;20465;-46
2022/03/19 05:53:35;;;;;;;22.73;21.03;;;;;;;1.67;98.03;104912.97;4971544;28;20466;-43
2022/03/19 05:56:03;;;;;;;25.70;23.60;;;;;;;2.39;95.19;104906.69;4969899;28;20997;-45
2022/03/19 05:58:30;;;;;;;24.60;23.10;;;;;;;3.13;92.63;104908.94;4971517;28;20526;-45
2022/03/19 06:00:58;;;;;;;26.83;25.13;;;;;;;3.87;93.24;104920.59;4971035;28;20543;-46
2022/03/19 06:03:27;;;;;;;21.20;19.40;;;;;;;4.48;93.05;104916.66;4970705;28;20446;-44
2022/03/19 06:05:55;;;;;;;23.47;21.30;;;;;;;5.15;92.70;104921.19;4971049;28;20431;-44
2022/03/19 06:08:22;;;;;;;20.57;19.20;;;;;;;5.68;95.37;104914.59;4971350;28;20435;-44
2022/03/19 06:10:50;;;;;;;22.73;19.60;;;;;;;6.06;100.00;104916.53;5004889;28;20545;-49
2022/03/19 06:13:18;;;;;;;21.27;19.57;;;;;;;6.64;99.85;104909.53;5056089;28;20578;-47
2022/03/19 06:15:45;;;;;;;21.43;19.57;;;;;;;7.02;94.44;104910.41;5049031;28;20430;-45
2022/03/19 06:18:13;;;;;;;18.60;17.10;;;;;;;7.38;89.10;104913.09;5071194;28;20940;-48
2022/03/19 06:20:42;;;;;;;20.57;18.73;;;;;;;7.63;82.29;104912.75;5053451;28;20976;-45
2022/03/19 06:23:10;;;;;;;21.73;19.47;;;;;;;8.01;80.78;104911.69;5050842;28;20823;-45
2022/03/19 06:25:37;;;;;;;19.30;17.93;;;;;;;8.11;74.17;104910.28;5051230;28;20557;-48
2022/03/19 06:28:05;;;;;;;20.63;18.97;;;;;;;8.28;72.16;104915.59;5050795;28;20467;-49
2022/03/19 06:30:37;;;;;;;20.00;18.50;;;;;;;8.22;67.50;104910.56;5050628;28;21071;-44
2022/03/19 06:33:06;;;;;;;19.60;18.30;;;;;;;8.33;69.20;104913.56;5050700;28;20463;-44
2022/03/19 06:38:22;;;;;;;20.90;19.10;;;;;;;8.64;71.56;104919.91;5051023;28;20440;-45
2022/03/19 06:40:49;;;;;;;21.40;19.70;;;;;;;8.84;69.86;104923.19;5051081;28;20459;-49
2022/03/19 06:43:17;;;;;;;22.23;20.33;;;;;;;8.67;64.69;104917.94;5049930;28;20434;-45
2022/03/19 06:45:45;;;;;;;21.70;20.20;;;;;;;8.65;63.48;104913.66;5056097;28;20845;-45
2022/03/19 06:48:13;;;;;;;23.43;21.37;;;;;;;8.73;64.88;104917.63;5071336;28;20536;-52
2022/03/19 06:50:40;;;;;;;23.27;21.50;;;;;;;8.67;63.71;104917.09;5061128;28;20982;-46
2022/03/19 06:53:08;;;;;;;22.90;21.30;;;;;;;8.45;64.84;104913.88;5050195;28;20530;-45
2022/03/19 06:55:37;;;;;;;24.10;22.10;;;;;;;8.51;67.29;104916.19;5051526;28;20577;-44
2022/03/19 06:58:05;;;;;;;22.47;20.90;;;;;;;8.62;67.47;104924.47;5070297;28;20466;-49
2022/03/19 07:00:32;;;;;;;23.50;21.33;;;;;;;8.71;66.06;104915.97;5070415;28;20446;-45
2022/03/19 07:03:00;;;;;;;24.27;22.17;;;;;;;8.51;64.29;104913.53;5070257;28;20847;-45
2022/03/19 07:05:30;;;;;;;22.43;20.60;;;;;;;8.23;65.58;104917.63;5069869;28;20524;-45
2022/03/19 07:07:59;;;;;;;21.90;20.50;;;;;;;7.95;66.56;104916.44;5063395;28;20483;-46
2022/03/19 07:10:27;;;;;;;22.63;20.60;;;;;;;7.79;68.27;104909.25;5067509;28;20469;-49
2022/03/19 07:12:57;;;;;;;21.93;20.30;;;;;;;7.35;68.68;104920.38;5067212;28;21063;-47
2022/03/19 07:15:27;;;;;;;20.90;19.40;;;;;;;7.23;70.06;104917.34;5050756;28;20433;-44
2022/03/19 07:17:55;;;;;;;21.23;19.93;;;;;;;7.17;71.13;104930.06;5050195;28;20469;-44
2022/03/19 07:20:24;;;;;;;23.17;21.00;;;;;;;7.01;72.16;104923.75;5050078;28;20558;-48
2022/03/19 07:22:53;;;;;;;21.60;20.17;;;;;;;6.79;72.56;104923.88;5052553;28;20522;-48
2022/03/19 07:25:24;;;;;;;21.70;20.23;;;;;;;6.59;72.89;104916.84;5070112;28;20478;-47
2022/03/19 07:27:53;;;;;;;21.67;19.87;;;;;;;6.24;73.77;104917.56;5070052;28;20462;-51
2022/03/19 07:30:23;;;;;;;23.73;21.30;;;;;;;6.02;75.40;104920.25;5066845;28;21039;-44
2022/03/19 07:32:51;;;;;;;23.67;21.87;;;;;;;5.98;77.20;104920.44;5070254;28;20801;-49
2022/03/19 07:35:19;;;;;;;25.00;22.90;;;;;;;6.05;78.63;104917.47;5066671;28;20770;-44
2022/03/19 07:37:47;;;;;;;24.50;22.87;;;;;;;6.10;79.21;104912.84;5050145;28;20520;-47
2022/03/19 07:41:45;;;;;;;23.03;21.43;;;;;;;6.19;81.35;104905.41;5049572;28;20505;-47
2022/03/19 07:43:03;;;;;;;22.60;21.13;;;;;;;6.45;80.43;104907.78;5049538;28;20518;-45
2022/03/19 07:45:32;;;;;;;23.63;21.90;;;;;;;6.80;81.49;104899.09;5050190;28;21011;-45
2022/03/19 07:48:00;;;;;;;24.07;21.97;;;;;;;7.12;79.37;104901.09;5065284;28;20462;-45
2022/03/19 07:50:48;;;;;;;23.20;21.57;;;;;;;7.53;79.95;104891.09;5049900;28;20993;-45
2022/03/19 07:53:16;;;;;;;23.43;21.30;;;;;;;7.80;77.32;104895.03;5049172;28;20522;-49
2022/03/19 07:55:43;;;;;;;22.80;21.23;;;;;;;7.84;74.31;104902.84;5052554;28;20431;-45
2022/03/19 07:58:16;;;;;;;24.00;22.40;;;;;;;8.01;73.34;104885.09;5066369;28;20970;-46
2022/03/19 08:00:45;;;;;;;23.37;21.23;;;;;;;7.98;74.25;104887.91;5050392;28;20809;-44
2022/03/19 08:03:13;;;;;;;23.27;21.53;;;;;;;7.73;74.34;104896.28;5052061;28;20439;-46
2022/03/19 08:05:42;;;;;;;24.80;22.63;;;;;;;7.50;74.93;104896.56;5066697;28;20471;-46
2022/03/19 08:08:10;;;;;;;26.07;24.20;;;;;;;7.32;76.89;104894.78;5061665;28;20470;-47
2022/03/19 08:10:38;;;;;;;25.03;23.20;;;;;;;7.26;78.15;104895.09;5058728;28;20664;-46
2022/03/19 08:13:08;;;;;;;25.50;23.23;;;;;;;7.04;78.46;104891.75;5056781;28;20445;-48
2022/03/19 08:15:39;;;;;;;26.33;24.23;;;;;;;7.07;79.68;104896.94;5050206;28;20434;-44
2022/03/19 08:18:09;;;;;;;25.53;23.70;;;;;;;6.81;79.75;104898.13;5051022;28;20455;-45
2022/03/19 08:20:36;;;;;;;26.80;24.23;;;;;;;6.82;80.70;104897.22;5064482;28;20458;-47
2022/03/19 08:23:04;;;;;;;24.93;22.93;;;;;;;6.93;81.02;104896.72;5065246;28;20444;-44
2022/03/19 08:25:32;;;;;;;26.00;23.83;;;;;;;7.03;80.70;104893.56;5072838;28;20484;-45
2022/03/19 08:28:00;;;;;;;25.57;23.80;;;;;;;7.07;80.62;104884.53;5067154;28;20908;-46
2022/03/19 08:30:31;;;;;;;24.20;22.40;;;;;;;7.09;79.56;104897.72;5064593;28;20528;-44
2022/03/19 08:32:59;;;;;;;24.63;22.27;;;;;;;7.09;80.02;104905.66;5073103;28;20434;-46
2022/03/19 08:35:28;;;;;;;22.07;20.57;;;;;;;7.10;79.12;104899.44;5073425;28;20442;-46
2022/03/19 08:40:38;;;;;;;23.53;21.60;;;;;;;7.12;79.54;104905.53;5061272;28;20456;-48
2022/03/19 08:43:05;;;;;;;23.37;21.57;;;;;;;7.14;79.29;104914.25;5072841;28;20438;-45
2022/03/19 08:45:33;;;;;;;24.37;22.37;;;;;;;7.23;78.42;104904.06;5069853;28;20481;-47
2022/03/19 08:48:01;;;;;;;30.67;24.33;;;;;;;7.26;80.20;104905.72;5072869;28;20462;-47
2022/03/19 08:50:30;;;;;;;24.60;22.87;;;;;;;7.41;78.95;104904.09;5072674;28;20454;-46
2022/03/19 08:52:57;;;;;;;26.87;24.20;;;;;;;7.57;79.84;104894.47;5072363;28;20438;-47
2022/03/19 08:55:25;;;;;;;23.20;21.70;;;;;;;7.77;78.42;104889.88;5072584;28;20861;-47
2022/03/19 08:57:53;;;;;;;24.50;22.73;;;;;;;7.90;77.58;104892.78;5072976;28;20867;-45
2022/03/19 09:00:20;;;;;;;24.97;23.27;;;;;;;8.00;77.97;104886.06;5072556;28;20454;-48
2022/03/19 09:02:49;;;;;;;24.80;22.87;;;;;;;7.94;76.53;104897.00;5072614;28;20625;-45
2022/03/19 09:05:17;;;;;;;24.53;22.63;;;;;;;8.07;76.90;104895.41;5072874;28;20431;-48
2022/03/19 09:07:46;;;;;;;25.67;23.73;;;;;;;8.19;75.96;104889.47;5068007;28;20497;-45
2022/03/19 09:10:13;;;;;;;24.23;22.60;;;;;;;8.26;74.32;104890.88;5071960;28;20442;-44
2022/03/19 09:12:41;;;;;;;24.47;22.50;;;;;;;8.38;73.82;104884.06;5059856;28;20439;-47
2022/03/19 09:15:11;;;;;;;21.83;20.53;;;;;;;8.47;73.33;104885.38;5052529;28;20979;-46
2022/03/19 09:17:40;;;;;;;23.90;22.00;;;;;;;8.62;73.39;104882.75;5050594;28;20581;-47
2022/03/19 09:20:10;;;;;;;25.87;23.70;;;;;;;8.70;71.72;104891.16;5051356;28;20470;-45
2022/03/19 09:22:38;;;;;;;23.17;21.83;;;;;;;8.64;72.11;104888.84;5047839;28;20804;-48
2022/03/19 09:25:08;;;;;;;23.00;21.23;;;;;;;8.78;71.25;104888.09;5058135;28;20805;-43
2022/03/19 09:27:39;;;;;;;22.00;20.43;;;;;;;8.87;71.04;104885.78;5051705;28;20815;-48
2022/03/19 09:30:09;;;;;;;21.60;20.27;;;;;;;8.91;71.06;104881.13;5056376;28;20836;-45
2022/03/19 09:32:36;;;;;;;21.67;20.27;;;;;;;8.89;70.79;104883.91;5053460;28;20435;-46
2022/03/19 09:35:05;;;;;;;21.73;20.27;;;;;;;8.94;70.28;104872.13;5051514;28;20431;-45
2022/03/19 09:37:33;;;;;;;26.37;24.10;;;;;;;8.96;70.05;104887.06;5044221;28;20838;-46
2022/03/19 09:40:01;;;;;;;29.87;26.80;;;;;;;8.95;68.96;104877.38;5051412;28;20550;-48
2022/03/19 09:42:32;;;;;;;29.63;26.40;;;;;;;8.99;69.47;104891.38;5052124;28;20526;-46
2022/03/19 09:45:00;;;;;;;22.00;20.43;;;;;;;8.92;69.93;104890.84;5047346;28;20471;-47
2022/03/19 09:47:28;;;;;;;22.23;20.73;;;;;;;8.77;71.27;104886.38;5054743;28;20463;-45
2022/03/19 09:49:56;;;;;;;23.43;21.70;;;;;;;8.78;71.87;104882.78;5049690;28;20524;-46
2022/03/19 09:52:28;;;;;;;24.27;22.57;;;;;;;8.75;71.92;104881.13;5049258;28;20592;-48
2022/03/19 09:54:59;;;;;;;22.13;20.50;;;;;;;8.72;71.28;104883.94;5060701;28;20765;-48
2022/03/19 09:57:27;;;;;;;22.87;21.13;;;;;;;8.66;69.66;104880.78;5051197;28;20485;-48
2022/03/19 09:59:56;;;;;;;22.03;20.93;;;;;;;8.78;69.15;104869.47;5057084;28;20439;-48
2022/03/19 10:02:23;;;;;;;21.37;20.00;;;;;;;8.76;68.77;104876.66;5051294;28;21001;-45
2022/03/19 10:04:52;;;;;;;23.00;21.27;;;;;;;8.90;69.25;104866.97;5057442;28;20822;-47
2022/03/19 10:10:11;;;;;;;21.20;19.90;;;;;;;9.03;67.61;104874.25;5050404;28;20802;-47
2022/03/19 10:12:45;;;;;;;20.97;19.77;;;;;;;9.08;66.63;104861.56;5043991;28;20950;-45
2022/03/19 10:15:14;;;;;;;20.37;19.03;;;;;;;8.93;67.87;104862.44;5051172;28;20514;-45
2022/03/19 10:17:46;;;;;;;20.17;18.90;;;;;;;9.07;67.78;104857.19;5040437;28;20479;-47
2022/03/19 10:20:14;;;;;;;20.47;19.03;;;;;;;9.12;67.59;104853.31;5050140;28;20439;-45
2022/03/19 10:22:44;;;;;;;20.43;19.27;;;;;;;8.89;68.48;104859.94;5051399;28;20428;-48
2022/03/19 10:25:17;;;;;;;19.20;18.10;;;;;;;8.98;68.02;104857.69;5049738;28;20838;-45
2022/03/19 10:27:47;;;;;;;19.73;18.40;;;;;;;9.07;67.38;104863.38;5057255;28;20475;-50
2022/03/19 10:30:19;;;;;;;20.27;18.57;;;;;;;9.02;67.96;104851.28;5052476;28;20560;-47
2022/03/19 10:32:52;;;;;;;20.03;18.70;;;;;;;9.07;69.13;104854.53;5051794;28;20986;-46
2022/03/19 10:35:28;;;;;;;20.53;19.43;;;;;;;9.14;68.68;104854.06;5045815;28;20516;-47
2022/03/19 10:37:57;;;;;;;20.30;18.93;;;;;;;9.08;68.79;104854.41;5050157;28;20827;-45
2022/03/19 10:40:37;;;;;;;18.13;16.90;;;;;;;8.95;67.80;104848.09;5046390;28;20887;-44
2022/03/19 10:43:07;;;;;;;17.97;16.70;;;;;;;9.04;68.07;104855.56;5046408;28;20478;-47
2022/03/19 10:45:42;;;;;;;19.43;18.10;;;;;;;9.20;67.57;104851.06;5050610;28;20515;-45
2022/03/19 10:48:12;;;;;;;19.03;17.70;;;;;;;8.94;67.80;104851.69;5049985;28;20567;-47
2022/03/19 10:50:41;;;;;;;19.43;17.93;;;;;;;9.01;67.77;104854.88;5046792;28;20487;-47
2022/03/19 10:53:09;;;;;;;19.53;17.60;;;;;;;8.98;67.66;104855.03;5049885;28;20443;-48
2022/03/19 10:55:37;;;;;;;19.57;18.27;;;;;;;9.12;68.85;104853.31;5050693;28;20522;-46
2022/03/19 10:58:05;;;;;;;19.30;17.93;;;;;;;9.28;68.71;104851.50;5050191;28;20546;-48
2022/03/19 11:00:54;;;;;;;16.90;16.10;;;;;;;9.21;68.07;104851.91;5050419;28;20551;-49
2022/03/19 11:03:29;;;;;;;17.13;16.03;;;;;;;9.06;69.06;104848.31;5049795;28;20442;-49
2022/03/19 11:06:05;;;;;;;17.70;16.40;;;;;;;9.13;69.00;104857.69;5050052;28;20427;-44
2022/03/19 11:08:37;;;;;;;17.33;16.23;;;;;;;9.25;67.50;104845.47;5050271;28;20497;-44
2022/03/19 11:11:10;;;;;;;15.57;14.43;;;;;;;9.16;65.93;104843.34;5050338;28;20549;-46
2022/03/19 11:13:43;;;;;;;17.73;16.30;;;;;;;9.28;65.71;104843.50;5048410;28;20444;-45
2022/03/19 11:16:13;;;;;;;15.30;14.40;;;;;;;9.31;65.29;104832.66;4994485;23;20602;-44
2022/03/19 11:18:43;;;;;;;15.63;14.53;;;;;;;9.35;65.83;104841.31;4947115;29;20443;-46
2022/03/19 11:21:11;;;;;;;14.27;13.43;;;;;;;9.28;66.21;104831.97;4949211;29;20522;-43
2022/03/19 11:23:51;;;;;;;15.00;14.10;;;;;;;9.08;67.57;104825.13;4949050;29;20436;-44
2022/03/19 11:26:23;;;;;;;14.00;13.23;;;;;;;9.11;66.97;104830.28;4935435;28;20481;-46
2022/03/19 11:28:52;;;;;;;15.27;14.37;;;;;;;9.09;67.18;104820.66;4930821;28;20483;-44
2022/03/19 11:31:27;;;;;;;14.43;13.47;;;;;;;9.26;66.64;104818.75;4929971;28;20520;-43
2022/03/19 11:33:59;;;;;;;13.20;12.47;;;;;;;9.30;66.32;104822.97;4925144;28;20458;-43
2022/03/19 11:36:26;;;;;;;12.90;12.17;;;;;;;9.37;65.85;104813.66;4927344;28;20551;-43
2022/03/19 11:38:56;;;;;;;13.83;12.60;;;;;;;9.31;66.31;104807.84;4923345;29;20432;-49
2022/03/19 11:41:26;;;;;;;11.93;11.23;;;;;;;9.27;65.40;104809.81;4927400;29;20437;-45